Terminal Aerodrome Forecast
Issued by NWS Grand Forks, ND

Home | Current Version | Previous Version | Text Only | Print | Product List | Glossary On
Versions: 1 2 3 4 5 6 7 8 9 10 11 12 13 14 15
000
FTUS43 KFGF 211138
TAFGFK
TAF
KGFK 211138Z 2112/2212 00000KT P6SM BKN120
     FM211800 20004KT P6SM VCSH BKN100
     FM212100 18008KT P6SM SCT100
     FM220000 35018G27KT P6SM SCT120
     FM220300 33006KT P6SM FEW250=

USA.gov is the U.S. government's official web portal to all federal, state and local government web resources and services.